Time;durP1;ratioP1;P1;durP2;ratioP2;P2;SDS_P1;SDS_P2;PMS_P1;PMS_P2;Temp;Humidity;BMP_temperature;BMP_pressure;BME280_temperature;BME280_humidity;BME280_pressure;Samples;Min_cycle;Max_cycle;Signal;HPM_P1;HPM_P2
2021/08/02 00:01:02;;;;;;;;;;;14.60;99.90;;;;;;1847118;75;20413;-76
2021/08/02 00:03:43;;;;;;;;;;;14.60;99.90;;;;;;1871051;75;20175;-77
2021/08/02 00:06:10;;;;;;;;;;;14.60;99.90;;;;;;1875538;75;20156;-77
2021/08/02 00:08:37;;;;;;;;;;;14.60;99.90;;;;;;1883199;75;20516;-76
2021/08/02 00:11:04;;;;;;;;;;;14.50;99.90;;;;;;1889354;75;20184;-77
2021/08/02 00:13:31;;;;;;;;;;;14.60;99.90;;;;;;1872768;75;20175;-77
2021/08/02 00:16:00;;;;;;;;;;;14.70;99.90;;;;;;1877546;75;20179;-76
2021/08/02 00:18:27;;;;;;;;;;;14.70;99.90;;;;;;1891358;74;20443;-77
2021/08/02 00:20:56;;;;;;;;;;;14.80;99.90;;;;;;1875067;75;20801;-76
2021/08/02 00:23:25;;;;;;;;;;;14.80;99.90;;;;;;1889127;75;20181;-76
2021/08/02 00:25:52;;;;;;;;;;;14.60;99.90;;;;;;1863691;75;20173;-76
2021/08/02 00:28:19;;;;;;;;;;;14.70;99.90;;;;;;1856839;76;20188;-77
2021/08/02 00:30:46;;;;;;;;;;;14.60;99.90;;;;;;1866804;75;20285;-76
2021/08/02 00:33:13;;;;;;;;;;;14.70;99.90;;;;;;1870471;75;20167;-76
2021/08/02 00:35:42;;;;;;;;;;;14.60;99.90;;;;;;1867021;75;20284;-76
2021/08/02 00:38:09;;;;;;;;;;;14.60;99.90;;;;;;1861582;75;20814;-76
2021/08/02 00:40:38;;;;;;;;;;;14.50;99.90;;;;;;1859088;75;20466;-76
2021/08/02 00:43:09;;;;;;;;;;;14.60;99.90;;;;;;1860580;75;20177;-76
2021/08/02 00:45:36;;;;;;;;;;;14.70;99.90;;;;;;1865490;74;20171;-77
2021/08/02 00:48:07;;;;;;;;;;;14.70;99.90;;;;;;1882813;75;20161;-76
2021/08/02 00:50:35;;;;;;;;;;;14.60;99.90;;;;;;1864269;75;20237;-77
2021/08/02 00:53:03;;;;;;;;;;;14.60;99.90;;;;;;1873505;75;20116;-76
2021/08/02 00:55:32;;;;;;;;;;;14.60;99.90;;;;;;1876892;75;20365;-76
2021/08/02 00:58:00;;;;;;;;;;;14.60;99.90;;;;;;1861879;75;20454;-76
2021/08/02 01:00:27;;;;;;;;;;;14.50;99.90;;;;;;1869062;75;20279;-77
2021/08/02 01:02:54;;;;;;;;;;;14.60;99.90;;;;;;1863620;75;20472;-76
2021/08/02 01:05:21;;;;;;;;;;;14.60;99.90;;;;;;1892335;75;20167;-77
2021/08/02 01:07:49;;;;;;;;;;;14.40;99.90;;;;;;1887501;75;20178;-77
2021/08/02 01:10:18;;;;;;;;;;;14.50;99.90;;;;;;1881598;75;20171;-76
2021/08/02 01:12:46;;;;;;;;;;;14.40;99.90;;;;;;1882115;74;20177;-76
2021/08/02 01:15:14;;;;;;;;;;;14.40;99.90;;;;;;1868392;75;20179;-76
2021/08/02 01:17:42;;;;;;;;;;;14.30;99.90;;;;;;1857895;75;20134;-77
2021/08/02 01:20:10;;;;;;;;;;;14.40;99.90;;;;;;1863520;75;20122;-77
2021/08/02 01:22:38;;;;;;;;;;;14.40;99.90;;;;;;1870486;75;20202;-76
2021/08/02 01:25:23;;;;;;;;;;;14.30;99.90;;;;;;1880667;75;20186;-77
2021/08/02 01:27:51;;;;;;;;;;;14.30;99.90;;;;;;1890351;75;20171;-76
2021/08/02 01:30:20;;;;;;;;;;;14.20;99.90;;;;;;1881403;75;20179;-76
2021/08/02 01:32:47;;;;;;;;;;;14.40;99.90;;;;;;1864701;74;20166;-76
2021/08/02 01:35:14;;;;;;;;;;;14.40;99.90;;;;;;1864599;75;20193;-76
2021/08/02 01:37:45;;;;;;;;;;;14.40;99.90;;;;;;1856476;77;20188;-76
2021/08/02 01:40:12;;;;;;;;;;;14.40;99.90;;;;;;1886524;75;20444;-76
2021/08/02 01:42:39;;;;;;;;;;;14.50;99.90;;;;;;1893528;74;20480;-76
2021/08/02 01:45:06;;;;;;;;;;;14.50;99.90;;;;;;1894847;75;20182;-77
2021/08/02 01:47:44;;;;;;;;;;;14.40;99.90;;;;;;1849500;75;20187;-76
2021/08/02 01:50:28;;;;;;;;;;;14.50;99.90;;;;;;1855880;77;20177;-76
2021/08/02 01:52:57;;;;;;;;;;;14.40;99.90;;;;;;1839394;75;20462;-76
2021/08/02 01:55:24;;;;;;;;;;;14.50;99.90;;;;;;1869869;75;20175;-76
2021/08/02 01:58:02;;;;;;;;;;;14.50;99.90;;;;;;1896028;74;20140;-76
2021/08/02 02:00:31;;;;;;;;;;;14.60;99.90;;;;;;1887109;74;20127;-76
2021/08/02 02:03:05;;;;;;;;;;;14.60;99.90;;;;;;1876673;75;20201;-76
2021/08/02 02:05:33;;;;;;;;;;;14.60;99.90;;;;;;1871666;75;20409;-76
2021/08/02 02:08:07;;;;;;;;;;;14.60;99.90;;;;;;1888442;74;20148;-76
2021/08/02 02:10:38;;;;;;;;;;;14.60;99.90;;;;;;1884605;75;20206;-76
2021/08/02 02:13:05;;;;;;;;;;;14.50;99.90;;;;;;1879256;75;20202;-76
2021/08/02 02:15:32;;;;;;;;;;;14.50;99.90;;;;;;1870534;75;20217;-76
2021/08/02 02:18:00;;;;;;;;;;;14.50;99.90;;;;;;1873599;75;20122;-75
2021/08/02 02:20:27;;;;;;;;;;;14.40;99.90;;;;;;1867106;75;20159;-76
2021/08/02 02:22:54;;;;;;;;;;;14.40;99.90;;;;;;1885737;74;20183;-76
2021/08/02 02:25:21;;;;;;;;;;;14.50;99.90;;;;;;1893172;75;20384;-77
2021/08/02 02:27:48;;;;;;;;;;;14.50;99.90;;;;;;1877415;75;20253;-77
2021/08/02 02:30:15;;;;;;;;;;;14.40;99.90;;;;;;1863554;75;20160;-77
2021/08/02 02:32:42;;;;;;;;;;;14.50;99.90;;;;;;1863095;74;20192;-77
2021/08/02 02:35:10;;;;;;;;;;;14.50;99.90;;;;;;1890550;74;20112;-77
2021/08/02 02:37:37;;;;;;;;;;;14.30;99.90;;;;;;1887903;75;20182;-77
2021/08/02 02:40:05;;;;;;;;;;;14.40;99.90;;;;;;1883477;75;20171;-76
2021/08/02 02:42:32;;;;;;;;;;;14.50;99.90;;;;;;1880653;75;20153;-77
2021/08/02 02:44:59;;;;;;;;;;;14.40;99.90;;;;;;1859169;75;20173;-77
2021/08/02 02:47:26;;;;;;;;;;;14.50;99.90;;;;;;1888416;75;20387;-77
2021/08/02 02:49:54;;;;;;;;;;;14.40;99.90;;;;;;1885771;75;20472;-77
2021/08/02 02:52:21;;;;;;;;;;;14.30;99.90;;;;;;1866226;75;20466;-77
2021/08/02 02:54:49;;;;;;;;;;;14.30;99.90;;;;;;1863899;74;20634;-77
2021/08/02 02:57:16;;;;;;;;;;;14.30;99.90;;;;;;1850418;75;20231;-77
2021/08/02 02:59:43;;;;;;;;;;;14.50;99.90;;;;;;1865420;75;20242;-77
2021/08/02 03:02:10;;;;;;;;;;;14.50;99.90;;;;;;1885939;75;20177;-77
2021/08/02 03:04:38;;;;;;;;;;;14.40;99.90;;;;;;1877081;75;20175;-77
2021/08/02 03:07:07;;;;;;;;;;;14.40;99.90;;;;;;1869105;75;20284;-77
2021/08/02 03:09:38;;;;;;;;;;;14.40;99.90;;;;;;1863409;75;20207;-76
2021/08/02 03:12:05;;;;;;;;;;;14.40;99.90;;;;;;1865599;75;20192;-77
2021/08/02 03:14:32;;;;;;;;;;;14.40;99.90;;;;;;1856201;76;20211;-76
2021/08/02 03:16:59;;;;;;;;;;;14.40;99.90;;;;;;1867424;75;20179;-76
2021/08/02 03:19:26;;;;;;;;;;;14.40;99.90;;;;;;1879765;75;20227;-76
2021/08/02 03:21:53;;;;;;;;;;;14.60;99.90;;;;;;1876769;75;20183;-76
2021/08/02 03:24:30;;;;;;;;;;;14.50;99.90;;;;;;1859658;75;20513;-77
2021/08/02 03:27:02;;;;;;;;;;;14.40;99.90;;;;;;1878588;75;20179;-77
2021/08/02 03:29:30;;;;;;;;;;;14.50;99.90;;;;;;1874807;74;20538;-77
2021/08/02 03:31:58;;;;;;;;;;;14.40;99.90;;;;;;1886115;73;20315;-77
2021/08/02 03:34:27;;;;;;;;;;;14.40;99.90;;;;;;1874090;75;20230;-76
2021/08/02 03:36:55;;;;;;;;;;;14.50;99.90;;;;;;1883409;75;20179;-76
2021/08/02 03:39:22;;;;;;;;;;;14.40;99.90;;;;;;1892656;75;20175;-77
2021/08/02 03:41:50;;;;;;;;;;;14.30;99.90;;;;;;1877579;75;20167;-77
2021/08/02 03:44:17;;;;;;;;;;;14.40;99.90;;;;;;1910565;75;20217;-76
2021/08/02 03:46:44;;;;;;;;;;;14.40;99.90;;;;;;1877483;75;20218;-76
2021/08/02 03:49:11;;;;;;;;;;;14.50;99.90;;;;;;1878400;75;20504;-76
2021/08/02 03:51:45;;;;;;;;;;;14.50;99.90;;;;;;1883317;75;20527;-75
2021/08/02 03:54:12;;;;;;;;;;;14.40;99.90;;;;;;1868830;75;20188;-75
2021/08/02 03:56:40;;;;;;;;;;;14.40;99.90;;;;;;1884524;75;20187;-75
2021/08/02 03:59:06;;;;;;;;;;;14.40;99.90;;;;;;1905727;75;20216;-75
2021/08/02 04:01:40;;;;;;;;;;;14.40;99.90;;;;;;1892726;75;20179;-75
2021/08/02 04:04:07;;;;;;;;;;;14.40;99.90;;;;;;1890255;75;20185;-74
2021/08/02 04:06:34;;;;;;;;;;;14.40;99.90;;;;;;1887368;75;20246;-74
2021/08/02 04:09:03;;;;;;;;;;;14.50;99.90;;;;;;1902431;75;20222;-75
2021/08/02 04:11:29;;;;;;;;;;;14.50;99.90;;;;;;1883181;75;20167;-75
2021/08/02 04:13:56;;;;;;;;;;;14.40;99.90;;;;;;1862713;75;20182;-75
2021/08/02 04:16:23;;;;;;;;;;;14.40;99.90;;;;;;1877285;76;20201;-75
2021/08/02 04:18:50;;;;;;;;;;;14.50;99.90;;;;;;1882636;75;20241;-75
2021/08/02 04:21:17;;;;;;;;;;;14.50;99.90;;;;;;1896253;75;20130;-75
2021/08/02 04:23:44;;;;;;;;;;;14.50;99.90;;;;;;1869129;75;20187;-75
2021/08/02 04:26:15;;;;;;;;;;;14.50;99.90;;;;;;1883031;75;20179;-75
2021/08/02 04:28:40;;;;;;;;;;;14.50;99.90;;;;;;1879102;75;20136;-75
2021/08/02 04:31:07;;;;;;;;;;;14.60;99.90;;;;;;1879858;75;20172;-75
2021/08/02 04:33:34;;;;;;;;;;;14.50;99.90;;;;;;1884289;75;20245;-75
2021/08/02 04:36:00;;;;;;;;;;;14.60;99.90;;;;;;1876874;75;20187;-75
2021/08/02 04:38:27;;;;;;;;;;;14.50;99.90;;;;;;1878481;75;20127;-75
2021/08/02 04:40:54;;;;;;;;;;;14.60;99.90;;;;;;1890134;75;20183;-75
2021/08/02 04:43:21;;;;;;;;;;;14.60;99.90;;;;;;1883235;75;20116;-76
2021/08/02 04:45:48;;;;;;;;;;;14.60;99.90;;;;;;1880519;75;20186;-75
2021/08/02 04:48:15;;;;;;;;;;;14.70;99.90;;;;;;1882549;75;20163;-75
2021/08/02 04:50:47;;;;;;;;;;;14.80;99.90;;;;;;1887206;75;20172;-75
2021/08/02 04:53:11;;;;;;;;;;;14.70;99.90;;;;;;1881955;75;20273;-78
2021/08/02 04:55:37;;;;;;;;;;;14.70;99.90;;;;;;1882632;75;20245;-75
2021/08/02 04:58:04;;;;;;;;;;;14.70;99.90;;;;;;1879179;75;20194;-75
2021/08/02 05:00:31;;;;;;;;;;;14.70;99.90;;;;;;1880421;75;20211;-76
2021/08/02 05:03:00;;;;;;;;;;;14.70;99.90;;;;;;1883675;75;20793;-77
2021/08/02 05:05:26;;;;;;;;;;;14.70;99.90;;;;;;1883349;75;20248;-77
2021/08/02 05:07:53;;;;;;;;;;;14.80;99.90;;;;;;1882656;75;20221;-76
2021/08/02 05:10:20;;;;;;;;;;;14.80;99.90;;;;;;1883008;75;20159;-77
2021/08/02 05:12:47;;;;;;;;;;;14.80;99.90;;;;;;1879128;75;20242;-75
2021/08/02 05:15:14;;;;;;;;;;;14.70;99.90;;;;;;1882501;75;20215;-74
2021/08/02 05:17:41;;;;;;;;;;;14.80;99.90;;;;;;1893264;75;20454;-75
2021/08/02 05:20:07;;;;;;;;;;;14.80;99.90;;;;;;1884562;75;20174;-75
2021/08/02 05:22:34;;;;;;;;;;;14.80;99.90;;;;;;1873059;75;20148;-75
2021/08/02 05:25:01;;;;;;;;;;;14.80;99.90;;;;;;1882371;75;20168;-76
2021/08/02 05:27:28;;;;;;;;;;;14.80;99.90;;;;;;1882580;75;20176;-75
2021/08/02 05:29:55;;;;;;;;;;;14.90;99.90;;;;;;1874570;75;20179;-75
2021/08/02 05:32:22;;;;;;;;;;;14.90;99.90;;;;;;1883086;75;20167;-75
2021/08/02 05:34:49;;;;;;;;;;;14.90;99.90;;;;;;1883282;75;20217;-75
2021/08/02 05:37:16;;;;;;;;;;;14.90;99.90;;;;;;1878333;75;20261;-75
2021/08/02 05:39:43;;;;;;;;;;;14.90;99.90;;;;;;1889102;75;20132;-76
2021/08/02 05:42:10;;;;;;;;;;;14.80;99.90;;;;;;1877598;75;20179;-75
2021/08/02 05:44:37;;;;;;;;;;;14.90;99.90;;;;;;1868530;75;20497;-75
2021/08/02 05:47:06;;;;;;;;;;;14.90;99.90;;;;;;1886310;75;20401;-75
2021/08/02 05:49:33;;;;;;;;;;;14.90;99.90;;;;;;1876044;77;20128;-74
2021/08/02 05:52:00;;;;;;;;;;;14.90;99.90;;;;;;1865207;75;20127;-76
2021/08/02 05:54:27;;;;;;;;;;;15.00;99.90;;;;;;1861022;75;20168;-75
2021/08/02 05:56:54;;;;;;;;;;;15.00;99.90;;;;;;1883556;75;20155;-75
2021/08/02 05:59:21;;;;;;;;;;;15.10;99.90;;;;;;1869335;75;20131;-75
2021/08/02 06:01:48;;;;;;;;;;;15.10;99.90;;;;;;1887936;75;20128;-73
2021/08/02 06:04:15;;;;;;;;;;;15.20;99.90;;;;;;1885065;75;20503;-73
2021/08/02 06:06:42;;;;;;;;;;;15.20;99.90;;;;;;1885465;75;20244;-74
2021/08/02 06:09:11;;;;;;;;;;;15.20;99.90;;;;;;1879847;75;20195;-75
2021/08/02 06:11:38;;;;;;;;;;;15.20;99.90;;;;;;1874704;75;20482;-76
2021/08/02 06:14:05;;;;;;;;;;;15.20;99.90;;;;;;1878810;75;20512;-76
2021/08/02 06:16:32;;;;;;;;;;;15.30;99.90;;;;;;1887296;75;20218;-76
2021/08/02 06:18:59;;;;;;;;;;;15.30;99.90;;;;;;1879411;75;20839;-77
2021/08/02 06:21:25;;;;;;;;;;;15.40;99.90;;;;;;1893285;75;20183;-77
2021/08/02 06:23:53;;;;;;;;;;;15.40;99.90;;;;;;1855551;76;20475;-75
2021/08/02 06:26:21;;;;;;;;;;;15.40;99.90;;;;;;1853069;76;20479;-76
2021/08/02 06:29:07;;;;;;;;;;;15.40;99.90;;;;;;1815780;77;20327;-76
2021/08/02 06:31:34;;;;;;;;;;;15.40;99.90;;;;;;1854900;75;20183;-75
2021/08/02 06:34:01;;;;;;;;;;;15.40;99.90;;;;;;1791012;78;20216;-78
2021/08/02 06:36:28;;;;;;;;;;;15.40;99.90;;;;;;1836544;77;20183;-78
2021/08/02 06:38:54;;;;;;;;;;;15.40;99.90;;;;;;1833574;77;20152;-78
2021/08/02 06:41:21;;;;;;;;;;;15.50;99.90;;;;;;1833972;77;20129;-76
2021/08/02 06:43:48;;;;;;;;;;;15.50;99.90;;;;;;1835537;77;20256;-77
2021/08/02 06:46:15;;;;;;;;;;;15.60;99.90;;;;;;1829648;77;20215;-77
2021/08/02 06:48:42;;;;;;;;;;;15.60;99.90;;;;;;1832076;77;20240;-76
2021/08/02 06:51:10;;;;;;;;;;;15.70;99.90;;;;;;1833510;77;20217;-77
2021/08/02 06:53:37;;;;;;;;;;;15.70;99.90;;;;;;1831539;77;20172;-76
2021/08/02 06:56:04;;;;;;;;;;;15.70;99.90;;;;;;1834438;77;20508;-76
2021/08/02 06:58:30;;;;;;;;;;;15.80;99.90;;;;;;1832730;77;20207;-76
2021/08/02 07:00:57;;;;;;;;;;;15.90;99.90;;;;;;1828281;77;20400;-75
2021/08/02 07:03:24;;;;;;;;;;;16.00;99.90;;;;;;1826057;77;20249;-75
2021/08/02 07:05:51;;;;;;;;;;;16.00;99.90;;;;;;1828207;77;20209;-76
2021/08/02 07:08:19;;;;;;;;;;;16.00;99.90;;;;;;1828927;77;20393;-76
2021/08/02 07:10:46;;;;;;;;;;;16.00;99.90;;;;;;1827311;77;20217;-75
2021/08/02 07:13:13;;;;;;;;;;;16.10;99.90;;;;;;1824363;77;20500;-76
2021/08/02 07:15:40;;;;;;;;;;;16.10;99.90;;;;;;1831747;77;20210;-75
2021/08/02 07:18:08;;;;;;;;;;;16.10;99.90;;;;;;1797698;78;20179;-76
2021/08/02 07:20:35;;;;;;;;;;;16.20;99.90;;;;;;1839284;77;20282;-76
2021/08/02 07:23:02;;;;;;;;;;;16.20;99.90;;;;;;1844479;77;20130;-77
2021/08/02 07:25:29;;;;;;;;;;;16.20;99.90;;;;;;1827081;78;20191;-77
2021/08/02 07:27:56;;;;;;;;;;;16.30;99.90;;;;;;1830067;77;20285;-77
2021/08/02 07:30:22;;;;;;;;;;;16.40;99.90;;;;;;1830202;77;20281;-76
2021/08/02 07:32:49;;;;;;;;;;;16.40;99.90;;;;;;1829873;77;20227;-77
2021/08/02 07:35:16;;;;;;;;;;;16.40;99.90;;;;;;1831109;77;20222;-77
2021/08/02 07:37:43;;;;;;;;;;;16.40;99.90;;;;;;1790644;78;20217;-76
2021/08/02 07:40:10;;;;;;;;;;;16.40;99.90;;;;;;1796600;78;20201;-77
2021/08/02 07:42:37;;;;;;;;;;;16.40;99.90;;;;;;1829098;77;20176;-77
2021/08/02 07:45:04;;;;;;;;;;;16.30;99.90;;;;;;1832851;77;20189;-77
2021/08/02 07:47:31;;;;;;;;;;;16.40;99.90;;;;;;1831400;77;20184;-76
2021/08/02 07:49:59;;;;;;;;;;;16.40;99.90;;;;;;1854907;75;20220;-78
2021/08/02 07:52:26;;;;;;;;;;;16.40;99.90;;;;;;1854155;76;20231;-78
2021/08/02 07:54:52;;;;;;;;;;;16.40;99.90;;;;;;1854262;77;20173;-77
2021/08/02 07:57:19;;;;;;;;;;;16.40;99.90;;;;;;1854533;76;20199;-76
2021/08/02 07:59:46;;;;;;;;;;;16.50;99.90;;;;;;1854394;76;20202;-76
2021/08/02 08:02:13;;;;;;;;;;;16.50;99.90;;;;;;1853740;75;20220;-76
2021/08/02 08:04:40;;;;;;;;;;;16.60;99.90;;;;;;1856904;76;20188;-76
2021/08/02 08:07:06;;;;;;;;;;;16.60;99.90;;;;;;1859540;76;20213;-76
2021/08/02 08:09:34;;;;;;;;;;;16.60;99.90;;;;;;1863122;77;20485;-76
2021/08/02 08:12:01;;;;;;;;;;;16.60;99.90;;;;;;1859642;75;20185;-76
2021/08/02 08:14:27;;;;;;;;;;;16.60;99.90;;;;;;1854126;77;20237;-77
2021/08/02 08:16:54;;;;;;;;;;;16.70;99.90;;;;;;1854520;75;20223;-77
2021/08/02 08:19:21;;;;;;;;;;;16.70;99.90;;;;;;1856071;76;20173;-77
2021/08/02 08:21:48;;;;;;;;;;;16.70;99.90;;;;;;1853635;75;20162;-76
2021/08/02 08:24:15;;;;;;;;;;;16.80;99.90;;;;;;1855349;76;20157;-76
2021/08/02 08:26:41;;;;;;;;;;;16.80;99.90;;;;;;1853236;76;20165;-76
2021/08/02 08:29:08;;;;;;;;;;;16.90;99.90;;;;;;1853387;76;20229;-76
2021/08/02 08:31:35;;;;;;;;;;;16.90;99.90;;;;;;1855346;75;20217;-77
2021/08/02 08:34:02;;;;;;;;;;;16.90;99.90;;;;;;1854654;76;20196;-77
2021/08/02 08:36:28;;;;;;;;;;;16.90;99.90;;;;;;1854484;76;20189;-76
2021/08/02 08:38:55;;;;;;;;;;;17.00;99.90;;;;;;1854037;75;20158;-75
2021/08/02 08:41:22;;;;;;;;;;;17.00;99.90;;;;;;1855887;77;20211;-75
2021/08/02 08:43:52;;;;;;;;;;;17.00;99.90;;;;;;1853276;76;20228;-75
2021/08/02 08:46:20;;;;;;;;;;;17.00;99.90;;;;;;1853553;76;20181;-75
2021/08/02 08:48:47;;;;;;;;;;;17.10;99.90;;;;;;1854458;75;20185;-75
2021/08/02 08:51:14;;;;;;;;;;;17.10;99.90;;;;;;1854195;75;20252;-75
2021/08/02 08:53:45;;;;;;;;;;;17.20;99.90;;;;;;1854809;76;20165;-75
2021/08/02 08:56:14;;;;;;;;;;;17.20;99.90;;;;;;1854342;75;20290;-76
2021/08/02 08:58:40;;;;;;;;;;;17.30;99.90;;;;;;1853192;76;20182;-76
2021/08/02 09:01:07;;;;;;;;;;;17.30;99.90;;;;;;1854513;75;20221;-73
2021/08/02 09:03:34;;;;;;;;;;;17.20;99.90;;;;;;1854968;76;20181;-75
2021/08/02 09:06:02;;;;;;;;;;;17.30;99.90;;;;;;1855262;77;20267;-75
2021/08/02 09:08:29;;;;;;;;;;;17.30;99.90;;;;;;1856018;75;20227;-75
2021/08/02 09:10:57;;;;;;;;;;;17.40;99.90;;;;;;1854614;76;20228;-73
2021/08/02 09:13:30;;;;;;;;;;;17.40;99.90;;;;;;1870666;76;20785;-74
2021/08/02 09:15:58;;;;;;;;;;;17.50;99.90;;;;;;1856409;76;20134;-75
2021/08/02 09:18:24;;;;;;;;;;;17.60;99.90;;;;;;1854342;76;20170;-74
2021/08/02 09:21:02;;;;;;;;;;;17.60;99.90;;;;;;1853767;76;20182;-74
2021/08/02 09:23:29;;;;;;;;;;;17.60;99.90;;;;;;1852924;76;20211;-74
2021/08/02 09:26:01;;;;;;;;;;;17.60;99.90;;;;;;1853596;76;20123;-74
2021/08/02 09:28:26;;;;;;;;;;;17.70;99.90;;;;;;1854476;76;20130;-75
2021/08/02 09:31:00;;;;;;;;;;;17.80;99.90;;;;;;1854445;76;20451;-75
2021/08/02 09:33:27;;;;;;;;;;;17.90;99.90;;;;;;1861851;74;20173;-78
2021/08/02 09:35:54;;;;;;;;;;;17.90;99.90;;;;;;1863853;77;20165;-77
2021/08/02 09:38:24;;;;;;;;;;;17.90;99.90;;;;;;1860650;75;20184;-79
2021/08/02 09:40:51;;;;;;;;;;;17.90;99.90;;;;;;1861283;77;20204;-79
2021/08/02 09:43:22;;;;;;;;;;;17.80;99.90;;;;;;1854001;77;20216;-81
2021/08/02 09:45:50;;;;;;;;;;;17.70;99.90;;;;;;1853293;77;20173;-82
2021/08/02 09:48:18;;;;;;;;;;;17.60;99.90;;;;;;1855504;76;20241;-82
2021/08/02 09:50:46;;;;;;;;;;;17.60;99.90;;;;;;1850306;76;20359;-81
2021/08/02 09:53:14;;;;;;;;;;;17.60;99.90;;;;;;1856198;77;20267;-82
2021/08/02 09:55:43;;;;;;;;;;;17.50;99.90;;;;;;1853468;77;20220;-81
2021/08/02 09:58:11;;;;;;;;;;;17.50;99.90;;;;;;1856512;77;20485;-81
2021/08/02 10:00:39;;;;;;;;;;;17.30;99.90;;;;;;1854528;77;20189;-81
2021/08/02 10:03:06;;;;;;;;;;;17.30;99.90;;;;;;1859197;76;20274;-81
2021/08/02 10:05:34;;;;;;;;;;;17.10;99.90;;;;;;1852497;77;20197;-81
2021/08/02 10:08:03;;;;;;;;;;;17.00;99.90;;;;;;1858416;77;20293;-81
2021/08/02 10:10:30;;;;;;;;;;;16.90;99.90;;;;;;1850509;77;20147;-81
2021/08/02 10:12:57;;;;;;;;;;;16.90;99.90;;;;;;1855412;77;20423;-81
2021/08/02 10:15:29;;;;;;;;;;;16.80;99.90;;;;;;1856512;76;20482;-81
2021/08/02 10:17:54;;;;;;;;;;;16.60;99.90;;;;;;1852460;76;20212;-81
2021/08/02 10:20:25;;;;;;;;;;;16.70;99.90;;;;;;1858068;77;20213;-82
2021/08/02 10:22:53;;;;;;;;;;;16.70;99.90;;;;;;1854005;77;20166;-79
2021/08/02 10:25:21;;;;;;;;;;;16.70;99.90;;;;;;1850345;77;20162;-80
2021/08/02 10:27:48;;;;;;;;;;;16.80;99.90;;;;;;1849168;77;20216;-83
2021/08/02 10:30:21;;;;;;;;;;;16.80;99.90;;;;;;1860438;76;20165;-81
2021/08/02 10:32:56;;;;;;;;;;;16.80;99.90;;;;;;1840579;77;20188;-86
2021/08/02 10:35:37;;;;;;;;;;;16.90;99.90;;;;;;1835027;78;20239;-82
2021/08/02 10:38:05;;;;;;;;;;;17.00;99.90;;;;;;1834307;78;20198;-79
2021/08/02 10:40:46;;;;;;;;;;;17.20;99.90;;;;;;1832328;78;20441;-80
2021/08/02 10:43:13;;;;;;;;;;;17.40;99.90;;;;;;1831619;77;20173;-80
2021/08/02 10:45:47;;;;;;;;;;;17.70;99.90;;;;;;1836624;78;20296;-81
2021/08/02 10:48:08;;;;;;;;;;;17.90;99.90;;;;;;1836497;77;20466;-80
2021/08/02 10:50:41;;;;;;;;;;;18.10;99.90;;;;;;1835665;78;20150;-80
2021/08/02 10:53:13;;;;;;;;;;;18.30;99.90;;;;;;1833395;78;20261;-81
2021/08/02 10:55:45;;;;;;;;;;;18.30;99.90;;;;;;1834408;77;20474;-80
2021/08/02 10:58:11;;;;;;;;;;;18.30;99.90;;;;;;1830261;78;20478;-82
2021/08/02 11:00:38;;;;;;;;;;;18.40;99.90;;;;;;1836333;77;20241;-81
2021/08/02 11:03:07;;;;;;;;;;;18.40;99.90;;;;;;1847571;76;20237;-82
2021/08/02 11:05:34;;;;;;;;;;;18.50;99.90;;;;;;1852240;77;20404;-83
2021/08/02 11:08:07;;;;;;;;;;;18.50;99.90;;;;;;1849544;76;20232;-82
2021/08/02 11:10:34;;;;;;;;;;;18.50;99.90;;;;;;1850622;76;20169;-83
2021/08/02 11:13:01;;;;;;;;;;;18.50;99.90;;;;;;1852332;76;20166;-83
2021/08/02 11:15:32;;;;;;;;;;;18.50;99.90;;;;;;1847999;76;20378;-85
2021/08/02 11:17:59;;;;;;;;;;;18.50;99.90;;;;;;1848396;77;20225;-85
2021/08/02 11:20:25;;;;;;;;;;;18.60;99.90;;;;;;1846312;77;20131;-86
2021/08/02 11:22:53;;;;;;;;;;;18.70;99.90;;;;;;1847087;77;20196;-86
2021/08/02 11:25:30;;;;;;;;;;;18.70;99.90;;;;;;1851122;76;20240;-85
2021/08/02 11:27:58;;;;;;;;;;;18.70;99.90;;;;;;1824437;77;20236;-85
2021/08/02 11:30:25;;;;;;;;;;;18.80;99.90;;;;;;1864351;75;20282;-86
2021/08/02 11:32:53;;;;;;;;;;;18.90;99.90;;;;;;1856207;76;20566;-85
2021/08/02 11:35:19;;;;;;;;;;;19.00;99.90;;;;;;1817238;77;20230;-85
2021/08/02 11:37:50;;;;;;;;;;;18.80;99.90;;;;;;1861583;75;20307;-83
2021/08/02 11:40:18;;;;;;;;;;;18.80;99.90;;;;;;1828154;77;20198;-83
2021/08/02 11:42:47;;;;;;;;;;;18.90;99.90;;;;;;1832188;77;20284;-82
2021/08/02 11:45:16;;;;;;;;;;;18.80;99.90;;;;;;1858228;75;20171;-78
2021/08/02 11:47:45;;;;;;;;;;;18.80;99.90;;;;;;1823962;77;20172;-80
2021/08/02 11:50:13;;;;;;;;;;;18.70;99.90;;;;;;1877541;75;20123;-79
2021/08/02 11:52:42;;;;;;;;;;;18.90;99.90;;;;;;1850168;75;20220;-78
2021/08/02 11:55:10;;;;;;;;;;;19.00;99.90;;;;;;1844752;76;20557;-77
2021/08/02 11:57:37;;;;;;;;;;;19.20;99.90;;;;;;1821071;78;20550;-78
2021/08/02 12:00:06;;;;;;;;;;;19.30;99.90;;;;;;1862862;76;20202;-79
2021/08/02 12:02:40;;;;;;;;;;;19.40;99.90;;;;;;1841201;76;20126;-77
2021/08/02 12:05:07;;;;;;;;;;;19.30;99.90;;;;;;1842679;76;20131;-77
2021/08/02 12:07:34;;;;;;;;;;;19.20;99.90;;;;;;1856211;76;20253;-78
2021/08/02 12:10:20;;;;;;;;;;;19.10;99.90;;;;;;1848602;76;20158;-78
2021/08/02 12:13:00;;;;;;;;;;;19.00;99.90;;;;;;1864896;74;20208;-78
2021/08/02 12:15:27;;;;;;;;;;;18.90;99.90;;;;;;1852108;76;20562;-78
2021/08/02 12:17:55;;;;;;;;;;;18.70;99.90;;;;;;1824004;77;20242;-77
2021/08/02 12:20:35;;;;;;;;;;;18.40;99.90;;;;;;1823484;77;20210;-77
2021/08/02 12:23:03;;;;;;;;;;;18.10;99.90;;;;;;1836395;77;20155;-77
2021/08/02 12:25:42;;;;;;;;;;;17.80;99.90;;;;;;1837878;76;20236;-81
2021/08/02 12:28:09;;;;;;;;;;;17.70;99.90;;;;;;1838796;77;20193;-79
2021/08/02 12:30:37;;;;;;;;;;;17.50;99.90;;;;;;1836669;77;20221;-79
2021/08/02 12:33:05;;;;;;;;;;;17.40;99.90;;;;;;1836870;77;20178;-79
2021/08/02 12:35:32;;;;;;;;;;;17.20;99.90;;;;;;1832999;76;20201;-79
2021/08/02 12:38:00;;;;;;;;;;;17.30;99.90;;;;;;1835444;77;20644;-78
2021/08/02 12:40:27;;;;;;;;;;;17.30;99.90;;;;;;1838026;77;20186;-79
2021/08/02 12:42:54;;;;;;;;;;;17.20;99.90;;;;;;1835536;76;20190;-79
2021/08/02 12:45:20;;;;;;;;;;;17.20;99.90;;;;;;1839688;76;21092;-78
2021/08/02 12:47:48;;;;;;;;;;;17.20;99.90;;;;;;1834301;77;20178;-80
2021/08/02 12:50:16;;;;;;;;;;;17.30;99.90;;;;;;1836116;77;20210;-78
2021/08/02 12:52:44;;;;;;;;;;;17.30;99.90;;;;;;1831912;78;20167;-79
2021/08/02 12:55:12;;;;;;;;;;;17.40;99.90;;;;;;1836303;77;20236;-79
2021/08/02 12:57:41;;;;;;;;;;;17.40;99.90;;;;;;1836819;77;20139;-79
2021/08/02 13:00:08;;;;;;;;;;;17.50;99.90;;;;;;1827543;77;20191;-79
2021/08/02 13:02:35;;;;;;;;;;;17.60;99.90;;;;;;1837389;77;20201;-77
2021/08/02 13:05:03;;;;;;;;;;;17.60;99.90;;;;;;1835413;77;20186;-78
2021/08/02 13:07:30;;;;;;;;;;;17.70;99.90;;;;;;1838535;77;20249;-80
2021/08/02 13:09:57;;;;;;;;;;;17.70;99.90;;;;;;1837890;77;20176;-78
2021/08/02 13:12:25;;;;;;;;;;;17.80;99.90;;;;;;1836376;77;20202;-77
2021/08/02 13:14:52;;;;;;;;;;;17.90;99.90;;;;;;1837756;77;20343;-77
2021/08/02 13:17:21;;;;;;;;;;;18.00;99.90;;;;;;1833672;77;20223;-76
2021/08/02 13:19:48;;;;;;;;;;;18.10;99.90;;;;;;1836305;77;20244;-78
2021/08/02 13:22:19;;;;;;;;;;;18.20;99.90;;;;;;1834715;77;20179;-81
2021/08/02 13:27:29;;;;;;;;;;;18.50;99.90;;;;;;1837665;76;20166;-80
2021/08/02 13:29:56;;;;;;;;;;;18.50;99.90;;;;;;1841606;77;20123;-79
2021/08/02 13:32:23;;;;;;;;;;;18.60;99.90;;;;;;1841399;78;20183;-79
2021/08/02 13:34:49;;;;;;;;;;;18.60;99.90;;;;;;1837111;77;20168;-79
2021/08/02 13:37:16;;;;;;;;;;;18.60;99.90;;;;;;1837590;77;20170;-80
2021/08/02 13:39:43;;;;;;;;;;;18.60;99.90;;;;;;1842425;77;20226;-80
2021/08/02 13:42:11;;;;;;;;;;;18.60;99.90;;;;;;1828654;78;20117;-79
2021/08/02 13:44:39;;;;;;;;;;;18.60;99.90;;;;;;1837219;77;20253;-82
2021/08/02 13:47:06;;;;;;;;;;;18.60;99.90;;;;;;1829077;77;20261;-78
2021/08/02 13:49:43;;;;;;;;;;;18.60;99.90;;;;;;1833555;77;20127;-77
2021/08/02 13:52:09;;;;;;;;;;;18.60;99.90;;;;;;1838860;76;20168;-78
2021/08/02 13:54:37;;;;;;;;;;;18.60;99.90;;;;;;1838880;76;20116;-77
2021/08/02 13:57:04;;;;;;;;;;;18.60;99.90;;;;;;1832809;76;20237;-76
2021/08/02 13:59:31;;;;;;;;;;;18.60;99.90;;;;;;1829457;77;20198;-82
2021/08/02 14:01:58;;;;;;;;;;;18.60;99.90;;;;;;1833629;77;20163;-77
2021/08/02 14:04:25;;;;;;;;;;;18.60;99.90;;;;;;1840521;77;20123;-81
2021/08/02 14:06:51;;;;;;;;;;;18.60;99.90;;;;;;1841431;77;20210;-78
2021/08/02 14:09:18;;;;;;;;;;;18.60;99.90;;;;;;1841536;77;20127;-76
2021/08/02 14:11:47;;;;;;;;;;;18.60;99.90;;;;;;1837020;78;20178;-75
2021/08/02 14:14:14;;;;;;;;;;;18.70;99.90;;;;;;1821929;77;20458;-75
2021/08/02 14:16:42;;;;;;;;;;;18.70;99.90;;;;;;1833942;77;20396;-76
2021/08/02 14:19:14;;;;;;;;;;;18.70;99.90;;;;;;1828840;77;20393;-76
2021/08/02 14:21:42;;;;;;;;;;;18.70;99.90;;;;;;1849331;76;20228;-77
2021/08/02 14:24:09;;;;;;;;;;;18.80;99.90;;;;;;1836083;76;20110;-77